Humidity-temperature Sensor

Selected Measurement Type: Relative Humidity

 
Relative Humidity [%]     6 entries per hour
Showing data from 8/26/2020 (00:00:00 Z) to 8/23/2020 (00:01:00 Z)
Previous Next [ Day | 3-Days | 7-Days ]
First Last
Prev [ Day | 3-Days | 7-Days ] Next
First Last

Start Time:     :
End Time:     :     
Time (in GMT) :00 :50 :40 :30 :20 :10
Previous Next [ Day | 3-Days | 7-Days ]
First Last
Prev [ Day | 3-Days | 7-Days ] Next
First Last


123 => good data
MM => data is determined as missing
-- => data not received/configured
Back to Top Back to Top
8/26/2020 00:00 to 23:10 82.14 83.15 79.78 78.20 79.68 81.22
8/25/2020 23:00 to 22:10 80.11 77.58 75.47 77.23 79.58 78.98
8/25/2020 22:00 to 21:10 77.46 76.62 77.60 79.14 79.41 78.80
8/25/2020 21:00 to 20:10 78.57 79.21 78.43 78.98 78.57 78.86
8/25/2020 20:00 to 19:10 78.08 77.36 76.82 76.64 77.77 77.48
8/25/2020 19:00 to 18:10 78.34 78.30 78.86 78.14 79.58 79.66
8/25/2020 18:00 to 17:10 76.62 79.72 80.13 80.91 81.36 82.96
8/25/2020 17:00 to 16:10 84.07 84.65 84.65 83.41 80.29 79.78
8/25/2020 16:00 to 15:10 80.48 80.48 80.17 80.46 80.29 81.24
8/25/2020 15:00 to 14:10 78.96 81.73 79.92 80.21 80.13 80.36
8/25/2020 14:00 to 13:10 81.48 80.93 81.34 80.19 81.34 81.71
8/25/2020 13:00 to 12:10 81.75 81.59 80.75 80.42 81.44 81.79
8/25/2020 12:00 to 11:10 82.18 83.09 83.09 83.76 83.83 83.95
8/25/2020 11:00 to 10:10 83.31 80.95 79.82 81.07 82.35 82.08
8/25/2020 10:00 to 9:10 80.95 78.34 78.86 80.42 80.23 79.88
8/25/2020 09:00 to 8:10 78.49 78.57 78.22 78.90 79.94 79.53
8/25/2020 08:00 to 7:10 78.22 77.50 78.65 80.31 79.58 80.15
8/25/2020 07:00 to 6:10 80.09 80.50 80.77 80.09 80.17 80.38
8/25/2020 06:00 to 5:10 79.80 76.43 74.83 75.12 75.90 75.10
8/25/2020 05:00 to 4:10 75.20 74.26 75.26 74.50 73.03 74.20
8/25/2020 04:00 to 3:10 79.74 77.65 75.08 76.50 74.05 74.91
8/25/2020 03:00 to 2:10 78.67 79.41 77.26 75.02 75.57 79.12
8/25/2020 02:00 to 1:10 79.51 74.07 73.05 73.13 72.10 72.14
8/25/2020 01:00 to 0:10 77.28 76.09 75.00 78.32 81.30 83.00
8/25/2020 00:00 to 23:10 83.80 83.31 81.94 86.39 84.75 85.20
8/24/2020 23:00 to 22:10 82.47 82.35 79.99 78.75 79.37 79.19
8/24/2020 22:00 to 21:10 80.23 80.07 79.39 78.69 78.43 78.71
8/24/2020 21:00 to 20:10 79.16 78.98 79.88 79.43 79.51 80.11
8/24/2020 20:00 to 19:10 80.50 79.94 81.32 82.35 83.52 84.36
8/24/2020 19:00 to 18:10 84.89 85.78 86.56 86.35 84.87 84.97
8/24/2020 18:00 to 17:10 86.66 86.39 86.39 86.70 86.54 86.19
8/24/2020 17:00 to 16:10 86.23 86.12 86.02 85.84 86.06 85.10
8/24/2020 16:00 to 15:10 84.52 83.70 83.27 85.36 86.49 87.17
8/24/2020 15:00 to 14:10 88.32 88.92 90.19 91.65 91.42 90.52
8/24/2020 14:00 to 13:10 92.24 93.08 93.52 93.68 93.91 94.19
8/24/2020 13:00 to 12:10 94.46 94.52 94.05 93.72 93.70 93.86
8/24/2020 12:00 to 11:10 94.50 94.19 93.78 92.57 91.59 90.31
8/24/2020 11:00 to 10:10 90.17 90.48 92.20 92.32 91.65 90.11
8/24/2020 10:00 to 9:10 91.28 91.11 90.00 90.13 92.51 91.85
8/24/2020 09:00 to 8:10 89.68 90.25 90.00 88.30 85.02 86.08
8/24/2020 08:00 to 7:10 85.69 85.00 90.31 91.67 90.35 89.18
8/24/2020 07:00 to 6:10 88.92 89.20 90.07 90.50 89.18 87.46
8/24/2020 06:00 to 5:10 89.14 88.73 89.37 89.02 84.97 82.06
8/24/2020 05:00 to 4:10 78.67 79.49 80.58 84.65 84.30 87.17
8/24/2020 04:00 to 3:10 85.61 90.66 88.49 80.85 81.05 79.82
8/24/2020 03:00 to 2:10 81.94 80.36 82.12 82.45 83.09 81.73
8/24/2020 02:00 to 1:10 80.75 82.16 83.91 84.65 86.39 86.70
8/24/2020 01:00 to 0:10 86.17 85.86 84.48 85.73 86.23 86.35
8/24/2020 00:00 to 23:10 85.02 83.37 83.52 77.69 77.26 78.12
8/23/2020 23:00 to 22:10 83.21 85.22 84.50 82.72 84.75 83.56
8/23/2020 22:00 to 21:10 82.57 78.90 80.15 79.90 80.66 80.48
8/23/2020 21:00 to 20:10 79.70 80.27 79.58 77.13 76.50 75.84
8/23/2020 20:00 to 19:10 78.32 79.02 81.63 83.35 85.28 83.80
8/23/2020 19:00 to 18:10 88.51 86.00 82.61 80.58 80.68 81.03
8/23/2020 18:00 to 17:10 80.95 83.04 81.61 82.59 83.04 82.70
8/23/2020 17:00 to 16:10 82.70 81.69 80.60 80.17 83.44 84.38
8/23/2020 16:00 to 15:10 84.52 84.36 86.06 87.64 86.62 80.11
8/23/2020 15:00 to 14:10 81.90 87.38 87.07 82.02 80.33 79.55
8/23/2020 14:00 to 13:10 79.02 82.63 78.63 79.12 80.62 81.46
8/23/2020 13:00 to 12:10 82.53 80.64 79.53 79.88 79.64 78.12
8/23/2020 12:00 to 11:10 78.75 78.10 78.77 80.19 80.13 80.07
8/23/2020 11:00 to 10:10 78.51 78.59 77.58 80.21 81.75 83.02
8/23/2020 10:00 to 9:10 83.56 84.85 84.87 84.30 84.77 84.13
8/23/2020 09:00 to 8:10 85.65 85.98 85.84 86.66 87.54 89.78
8/23/2020 08:00 to 7:10 89.47 85.63 86.60 83.99 81.09 82.47
8/23/2020 07:00 to 6:10 82.80 75.45 76.06 77.30 73.58 74.91
8/23/2020 06:00 to 5:10 73.48 73.44 73.93 73.23 71.92 71.47
8/23/2020 05:00 to 4:10 68.88 69.19 67.46 66.44 68.30 69.39
8/23/2020 04:00 to 3:10 69.25 69.47 69.21 68.39 68.34 69.74
8/23/2020 03:00 to 2:10 71.38 73.21 72.84 73.40 72.84 72.06
8/23/2020 02:00 to 1:10 72.76 72.14 73.79 72.62 72.96 73.97
8/23/2020 01:00 to 0:10 74.26 73.95 74.30 73.27 73.33 76.31